sensor_id;sensor_type;location;lat;lon;timestamp;P1;durP1;ratioP1;P2;durP2;ratioP2
68989;SDS011;56046;47.270;11.368;2022-09-24T00:00:07;7.53;;;2.97;;
68989;SDS011;56046;47.270;11.368;2022-09-24T00:02:32;5.03;;;3.10;;
68989;SDS011;56046;47.270;11.368;2022-09-24T00:04:57;6.00;;;3.07;;
68989;SDS011;56046;47.270;11.368;2022-09-24T00:07:23;7.60;;;3.40;;
68989;SDS011;56046;47.270;11.368;2022-09-24T00:09:48;5.70;;;3.57;;
68989;SDS011;56046;47.270;11.368;2022-09-24T00:12:13;6.20;;;3.20;;
68989;SDS011;56046;47.270;11.368;2022-09-24T00:14:39;6.30;;;3.87;;
68989;SDS011;56046;47.270;11.368;2022-09-24T00:17:04;5.83;;;3.40;;
68989;SDS011;56046;47.270;11.368;2022-09-24T00:19:29;5.70;;;3.57;;
68989;SDS011;56046;47.270;11.368;2022-09-24T00:21:55;6.33;;;3.20;;
68989;SDS011;56046;47.270;11.368;2022-09-24T00:24:20;7.20;;;3.20;;
68989;SDS011;56046;47.270;11.368;2022-09-24T00:27:04;7.82;;;3.67;;
68989;SDS011;56046;47.270;11.368;2022-09-24T00:29:30;5.90;;;3.37;;
68989;SDS011;56046;47.270;11.368;2022-09-24T00:31:59;7.38;;;3.35;;
68989;SDS011;56046;47.270;11.368;2022-09-24T00:34:25;6.10;;;3.50;;
68989;SDS011;56046;47.270;11.368;2022-09-24T00:36:50;7.87;;;3.60;;
68989;SDS011;56046;47.270;11.368;2022-09-24T00:39:16;5.60;;;3.28;;
68989;SDS011;56046;47.270;11.368;2022-09-24T00:41:42;7.50;;;3.20;;
68989;SDS011;56046;47.270;11.368;2022-09-24T00:46:57;6.00;;;3.07;;
68989;SDS011;56046;47.270;11.368;2022-09-24T00:49:22;7.90;;;3.37;;
68989;SDS011;56046;47.270;11.368;2022-09-24T00:51:49;7.03;;;3.30;;
68989;SDS011;56046;47.270;11.368;2022-09-24T00:54:16;6.40;;;3.10;;
68989;SDS011;56046;47.270;11.368;2022-09-24T00:56:42;5.40;;;3.03;;
68989;SDS011;56046;47.270;11.368;2022-09-24T00:59:08;6.23;;;3.40;;
68989;SDS011;56046;47.270;11.368;2022-09-24T01:01:35;7.88;;;3.90;;
68989;SDS011;56046;47.270;11.368;2022-09-24T01:04:01;5.30;;;2.97;;
68989;SDS011;56046;47.270;11.368;2022-09-24T01:06:26;6.65;;;3.40;;
68989;SDS011;56046;47.270;11.368;2022-09-24T01:08:52;6.57;;;3.60;;
68989;SDS011;56046;47.270;11.368;2022-09-24T01:16:54;7.10;;;3.50;;
68989;SDS011;56046;47.270;11.368;2022-09-24T01:21:51;7.93;;;4.18;;
68989;SDS011;56046;47.270;11.368;2022-09-24T01:26:51;7.57;;;3.92;;
68989;SDS011;56046;47.270;11.368;2022-09-24T01:29:26;7.78;;;4.18;;
68989;SDS011;56046;47.270;11.368;2022-09-24T01:32:14;8.37;;;4.20;;
68989;SDS011;56046;47.270;11.368;2022-09-24T01:35:01;9.68;;;4.88;;
68989;SDS011;56046;47.270;11.368;2022-09-24T01:37:24;10.25;;;4.43;;
68989;SDS011;56046;47.270;11.368;2022-09-24T01:39:51;8.30;;;4.32;;
68989;SDS011;56046;47.270;11.368;2022-09-24T01:42:16;7.68;;;4.28;;
68989;SDS011;56046;47.270;11.368;2022-09-24T01:44:42;7.97;;;4.23;;
68989;SDS011;56046;47.270;11.368;2022-09-24T01:47:08;8.20;;;4.53;;
68989;SDS011;56046;47.270;11.368;2022-09-24T01:49:36;7.25;;;4.03;;
68989;SDS011;56046;47.270;11.368;2022-09-24T01:52:02;7.87;;;3.87;;
68989;SDS011;56046;47.270;11.368;2022-09-24T01:54:31;7.15;;;4.60;;
68989;SDS011;56046;47.270;11.368;2022-09-24T01:59:26;6.43;;;4.23;;
68989;SDS011;56046;47.270;11.368;2022-09-24T02:01:54;7.13;;;3.88;;
68989;SDS011;56046;47.270;11.368;2022-09-24T02:04:21;7.13;;;3.60;;
68989;SDS011;56046;47.270;11.368;2022-09-24T02:06:53;7.10;;;3.70;;
68989;SDS011;56046;47.270;11.368;2022-09-24T02:09:28;7.53;;;3.65;;
68989;SDS011;56046;47.270;11.368;2022-09-24T02:11:53;6.97;;;3.40;;
68989;SDS011;56046;47.270;11.368;2022-09-24T02:14:20;5.70;;;2.97;;
68989;SDS011;56046;47.270;11.368;2022-09-24T02:16:48;5.43;;;3.10;;
68989;SDS011;56046;47.270;11.368;2022-09-24T02:19:16;6.03;;;3.88;;
68989;SDS011;56046;47.270;11.368;2022-09-24T02:21:42;6.70;;;3.90;;
68989;SDS011;56046;47.270;11.368;2022-09-24T02:24:15;7.38;;;3.88;;
68989;SDS011;56046;47.270;11.368;2022-09-24T02:26:42;7.68;;;3.70;;
68989;SDS011;56046;47.270;11.368;2022-09-24T02:29:07;6.27;;;3.50;;
68989;SDS011;56046;47.270;11.368;2022-09-24T02:31:36;5.60;;;3.40;;
68989;SDS011;56046;47.270;11.368;2022-09-24T02:34:05;6.90;;;3.45;;
68989;SDS011;56046;47.270;11.368;2022-09-24T02:39:12;6.87;;;3.27;;
68989;SDS011;56046;47.270;11.368;2022-09-24T02:41:37;6.00;;;3.10;;
68989;SDS011;56046;47.270;11.368;2022-09-24T02:44:03;8.77;;;3.33;;
68989;SDS011;56046;47.270;11.368;2022-09-24T02:46:29;7.57;;;3.30;;
68989;SDS011;56046;47.270;11.368;2022-09-24T02:48:54;6.23;;;3.67;;
68989;SDS011;56046;47.270;11.368;2022-09-24T02:51:19;6.20;;;2.97;;
68989;SDS011;56046;47.270;11.368;2022-09-24T02:53:45;6.40;;;3.67;;
68989;SDS011;56046;47.270;11.368;2022-09-24T02:56:11;7.80;;;3.43;;
68989;SDS011;56046;47.270;11.368;2022-09-24T02:58:36;7.50;;;4.03;;
68989;SDS011;56046;47.270;11.368;2022-09-24T03:01:02;9.07;;;3.72;;
68989;SDS011;56046;47.270;11.368;2022-09-24T03:03:27;8.37;;;3.80;;
68989;SDS011;56046;47.270;11.368;2022-09-24T03:05:52;6.67;;;3.33;;
68989;SDS011;56046;47.270;11.368;2022-09-24T03:08:21;7.40;;;3.88;;
68989;SDS011;56046;47.270;11.368;2022-09-24T03:10:48;7.43;;;4.10;;
68989;SDS011;56046;47.270;11.368;2022-09-24T03:13:15;8.25;;;4.63;;
68989;SDS011;56046;47.270;11.368;2022-09-24T03:15:41;8.60;;;4.60;;
68989;SDS011;56046;47.270;11.368;2022-09-24T03:18:07;9.38;;;4.85;;
68989;SDS011;56046;47.270;11.368;2022-09-24T03:20:32;11.00;;;4.43;;
68989;SDS011;56046;47.270;11.368;2022-09-24T03:22:57;8.00;;;4.70;;
68989;SDS011;56046;47.270;11.368;2022-09-24T03:25:23;8.17;;;4.57;;
68989;SDS011;56046;47.270;11.368;2022-09-24T03:27:49;8.73;;;4.70;;
68989;SDS011;56046;47.270;11.368;2022-09-24T03:30:14;9.83;;;5.03;;
68989;SDS011;56046;47.270;11.368;2022-09-24T03:32:58;7.37;;;4.67;;
68989;SDS011;56046;47.270;11.368;2022-09-24T03:35:24;12.90;;;5.15;;
68989;SDS011;56046;47.270;11.368;2022-09-24T03:37:49;9.90;;;4.90;;
68989;SDS011;56046;47.270;11.368;2022-09-24T03:40:14;9.63;;;4.70;;
68989;SDS011;56046;47.270;11.368;2022-09-24T03:42:39;8.30;;;4.20;;
68989;SDS011;56046;47.270;11.368;2022-09-24T03:45:05;8.53;;;4.27;;
68989;SDS011;56046;47.270;11.368;2022-09-24T03:47:31;8.63;;;4.70;;
68989;SDS011;56046;47.270;11.368;2022-09-24T03:49:56;10.20;;;4.10;;
68989;SDS011;56046;47.270;11.368;2022-09-24T03:52:22;6.80;;;3.60;;
68989;SDS011;56046;47.270;11.368;2022-09-24T03:54:47;7.72;;;3.97;;
68989;SDS011;56046;47.270;11.368;2022-09-24T03:57:13;7.10;;;3.83;;
68989;SDS011;56046;47.270;11.368;2022-09-24T03:59:42;6.43;;;3.67;;
68989;SDS011;56046;47.270;11.368;2022-09-24T04:02:08;7.75;;;4.53;;
68989;SDS011;56046;47.270;11.368;2022-09-24T04:04:33;10.85;;;4.70;;
68989;SDS011;56046;47.270;11.368;2022-09-24T04:06:58;7.67;;;4.17;;
68989;SDS011;56046;47.270;11.368;2022-09-24T04:09:24;11.70;;;5.00;;
68989;SDS011;56046;47.270;11.368;2022-09-24T04:11:49;7.07;;;4.10;;
68989;SDS011;56046;47.270;11.368;2022-09-24T04:14:16;7.32;;;4.00;;
68989;SDS011;56046;47.270;11.368;2022-09-24T04:16:41;6.90;;;4.07;;
68989;SDS011;56046;47.270;11.368;2022-09-24T04:19:07;6.90;;;3.73;;
68989;SDS011;56046;47.270;11.368;2022-09-24T04:21:32;6.20;;;3.67;;
68989;SDS011;56046;47.270;11.368;2022-09-24T04:23:57;8.57;;;4.00;;
68989;SDS011;56046;47.270;11.368;2022-09-24T04:26:22;7.07;;;3.20;;
68989;SDS011;56046;47.270;11.368;2022-09-24T04:28:48;7.50;;;3.43;;
68989;SDS011;56046;47.270;11.368;2022-09-24T04:31:14;6.90;;;3.53;;
68989;SDS011;56046;47.270;11.368;2022-09-24T04:33:39;7.30;;;3.73;;
68989;SDS011;56046;47.270;11.368;2022-09-24T04:36:04;5.50;;;3.37;;
68989;SDS011;56046;47.270;11.368;2022-09-24T04:38:30;6.80;;;4.00;;
68989;SDS011;56046;47.270;11.368;2022-09-24T04:41:02;8.47;;;4.47;;
68989;SDS011;56046;47.270;11.368;2022-09-24T04:43:28;8.23;;;4.10;;
68989;SDS011;56046;47.270;11.368;2022-09-24T04:45:55;8.53;;;3.80;;
68989;SDS011;56046;47.270;11.368;2022-09-24T04:48:20;8.07;;;3.53;;
68989;SDS011;56046;47.270;11.368;2022-09-24T04:50:46;5.65;;;3.47;;
68989;SDS011;56046;47.270;11.368;2022-09-24T04:53:12;8.20;;;3.90;;
68989;SDS011;56046;47.270;11.368;2022-09-24T04:55:37;7.03;;;3.93;;
68989;SDS011;56046;47.270;11.368;2022-09-24T04:58:03;7.00;;;3.92;;
68989;SDS011;56046;47.270;11.368;2022-09-24T05:00:28;8.57;;;4.40;;
68989;SDS011;56046;47.270;11.368;2022-09-24T05:02:58;10.20;;;4.72;;
68989;SDS011;56046;47.270;11.368;2022-09-24T05:05:23;8.27;;;4.63;;
68989;SDS011;56046;47.270;11.368;2022-09-24T05:07:49;10.13;;;4.60;;
68989;SDS011;56046;47.270;11.368;2022-09-24T05:10:15;8.45;;;3.90;;
68989;SDS011;56046;47.270;11.368;2022-09-24T05:12:40;8.30;;;4.77;;
68989;SDS011;56046;47.270;11.368;2022-09-24T05:15:05;9.10;;;4.57;;
68989;SDS011;56046;47.270;11.368;2022-09-24T05:17:31;9.07;;;4.20;;
68989;SDS011;56046;47.270;11.368;2022-09-24T05:19:56;5.87;;;3.40;;
68989;SDS011;56046;47.270;11.368;2022-09-24T05:22:25;7.37;;;4.00;;
68989;SDS011;56046;47.270;11.368;2022-09-24T05:24:54;6.75;;;4.00;;
68989;SDS011;56046;47.270;11.368;2022-09-24T05:27:19;7.93;;;4.33;;
68989;SDS011;56046;47.270;11.368;2022-09-24T05:29:45;8.80;;;4.35;;
68989;SDS011;56046;47.270;11.368;2022-09-24T05:32:12;8.53;;;4.90;;
68989;SDS011;56046;47.270;11.368;2022-09-24T05:34:38;9.00;;;5.03;;
68989;SDS011;56046;47.270;11.368;2022-09-24T05:37:05;8.18;;;4.40;;
68989;SDS011;56046;47.270;11.368;2022-09-24T05:39:30;8.30;;;4.00;;
68989;SDS011;56046;47.270;11.368;2022-09-24T05:41:55;7.87;;;4.50;;
68989;SDS011;56046;47.270;11.368;2022-09-24T05:44:21;8.47;;;4.60;;
68989;SDS011;56046;47.270;11.368;2022-09-24T05:46:47;7.22;;;4.43;;
68989;SDS011;56046;47.270;11.368;2022-09-24T05:49:12;8.33;;;4.30;;
68989;SDS011;56046;47.270;11.368;2022-09-24T05:51:37;8.80;;;4.40;;
68989;SDS011;56046;47.270;11.368;2022-09-24T05:54:03;10.13;;;4.80;;
68989;SDS011;56046;47.270;11.368;2022-09-24T05:56:28;7.47;;;4.10;;
68989;SDS011;56046;47.270;11.368;2022-09-24T05:58:53;7.43;;;4.33;;
68989;SDS011;56046;47.270;11.368;2022-09-24T06:01:18;8.32;;;4.65;;
68989;SDS011;56046;47.270;11.368;2022-09-24T06:03:44;8.80;;;5.17;;
68989;SDS011;56046;47.270;11.368;2022-09-24T06:06:09;9.50;;;4.40;;
68989;SDS011;56046;47.270;11.368;2022-09-24T06:08:34;7.33;;;4.77;;
68989;SDS011;56046;47.270;11.368;2022-09-24T06:11:00;8.17;;;4.53;;
68989;SDS011;56046;47.270;11.368;2022-09-24T06:13:26;8.98;;;5.07;;
68989;SDS011;56046;47.270;11.368;2022-09-24T06:15:52;9.40;;;4.23;;
68989;SDS011;56046;47.270;11.368;2022-09-24T06:18:17;10.70;;;4.70;;
68989;SDS011;56046;47.270;11.368;2022-09-24T06:20:42;6.93;;;4.30;;
68989;SDS011;56046;47.270;11.368;2022-09-24T06:23:08;10.32;;;4.57;;
68989;SDS011;56046;47.270;11.368;2022-09-24T06:25:33;8.57;;;4.83;;
68989;SDS011;56046;47.270;11.368;2022-09-24T06:27:59;9.13;;;4.63;;
68989;SDS011;56046;47.270;11.368;2022-09-24T06:30:29;9.35;;;4.93;;
68989;SDS011;56046;47.270;11.368;2022-09-24T06:32:59;9.98;;;4.97;;
68989;SDS011;56046;47.270;11.368;2022-09-24T06:35:25;8.93;;;5.40;;
68989;SDS011;56046;47.270;11.368;2022-09-24T06:37:51;11.30;;;4.77;;
68989;SDS011;56046;47.270;11.368;2022-09-24T06:40:16;9.68;;;5.53;;
68989;SDS011;56046;47.270;11.368;2022-09-24T06:42:42;9.87;;;4.60;;
68989;SDS011;56046;47.270;11.368;2022-09-24T06:45:07;9.87;;;4.93;;
68989;SDS011;56046;47.270;11.368;2022-09-24T06:47:33;8.20;;;5.00;;
68989;SDS011;56046;47.270;11.368;2022-09-24T06:49:58;8.10;;;4.80;;
68989;SDS011;56046;47.270;11.368;2022-09-24T06:52:23;8.23;;;5.43;;
68989;SDS011;56046;47.270;11.368;2022-09-24T06:54:48;7.77;;;4.57;;
68989;SDS011;56046;47.270;11.368;2022-09-24T06:57:14;8.10;;;4.20;;
68989;SDS011;56046;47.270;11.368;2022-09-24T06:59:40;8.50;;;4.35;;
68989;SDS011;56046;47.270;11.368;2022-09-24T07:02:05;10.03;;;4.57;;
68989;SDS011;56046;47.270;11.368;2022-09-24T07:04:30;10.20;;;4.37;;
68989;SDS011;56046;47.270;11.368;2022-09-24T07:06:55;10.00;;;4.13;;
68989;SDS011;56046;47.270;11.368;2022-09-24T07:09:39;8.23;;;4.65;;
68989;SDS011;56046;47.270;11.368;2022-09-24T07:12:05;7.73;;;4.23;;
68989;SDS011;56046;47.270;11.368;2022-09-24T07:14:32;8.95;;;4.70;;
68989;SDS011;56046;47.270;11.368;2022-09-24T07:16:58;11.70;;;4.50;;
68989;SDS011;56046;47.270;11.368;2022-09-24T07:19:23;9.43;;;3.97;;
68989;SDS011;56046;47.270;11.368;2022-09-24T07:21:48;7.87;;;4.30;;
68989;SDS011;56046;47.270;11.368;2022-09-24T07:24:13;11.53;;;5.00;;
68989;SDS011;56046;47.270;11.368;2022-09-24T07:26:39;6.97;;;3.97;;
68989;SDS011;56046;47.270;11.368;2022-09-24T07:29:04;10.07;;;4.53;;
68989;SDS011;56046;47.270;11.368;2022-09-24T07:31:29;8.13;;;4.40;;
68989;SDS011;56046;47.270;11.368;2022-09-24T07:33:54;8.13;;;4.30;;
68989;SDS011;56046;47.270;11.368;2022-09-24T07:36:20;7.93;;;4.80;;
68989;SDS011;56046;47.270;11.368;2022-09-24T07:38:46;7.63;;;4.20;;
68989;SDS011;56046;47.270;11.368;2022-09-24T07:41:11;8.10;;;4.63;;
68989;SDS011;56046;47.270;11.368;2022-09-24T07:43:37;8.80;;;4.20;;
68989;SDS011;56046;47.270;11.368;2022-09-24T07:46:02;7.67;;;4.30;;
68989;SDS011;56046;47.270;11.368;2022-09-24T07:48:27;8.43;;;3.97;;
68989;SDS011;56046;47.270;11.368;2022-09-24T07:50:53;7.37;;;4.27;;
68989;SDS011;56046;47.270;11.368;2022-09-24T07:53:18;7.47;;;4.80;;
68989;SDS011;56046;47.270;11.368;2022-09-24T07:55:45;7.85;;;4.22;;
68989;SDS011;56046;47.270;11.368;2022-09-24T07:58:11;7.40;;;4.10;;
68989;SDS011;56046;47.270;11.368;2022-09-24T08:00:37;6.68;;;4.50;;
68989;SDS011;56046;47.270;11.368;2022-09-24T08:03:02;7.60;;;4.30;;
68989;SDS011;56046;47.270;11.368;2022-09-24T08:05:28;9.20;;;4.65;;
68989;SDS011;56046;47.270;11.368;2022-09-24T08:07:54;7.33;;;4.00;;
68989;SDS011;56046;47.270;11.368;2022-09-24T08:10:20;6.45;;;3.72;;
68989;SDS011;56046;47.270;11.368;2022-09-24T08:12:46;8.30;;;4.32;;
68989;SDS011;56046;47.270;11.368;2022-09-24T08:15:11;7.23;;;4.43;;
68989;SDS011;56046;47.270;11.368;2022-09-24T08:17:36;7.00;;;3.80;;
68989;SDS011;56046;47.270;11.368;2022-09-24T08:20:02;7.23;;;4.30;;
68989;SDS011;56046;47.270;11.368;2022-09-24T08:22:28;7.10;;;3.80;;
68989;SDS011;56046;47.270;11.368;2022-09-24T08:24:53;6.90;;;3.40;;
68989;SDS011;56046;47.270;11.368;2022-09-24T08:27:18;6.87;;;3.37;;
68989;SDS011;56046;47.270;11.368;2022-09-24T08:29:48;8.00;;;3.83;;
68989;SDS011;56046;47.270;11.368;2022-09-24T08:32:13;6.93;;;3.83;;
68989;SDS011;56046;47.270;11.368;2022-09-24T08:34:38;5.37;;;3.57;;
68989;SDS011;56046;47.270;11.368;2022-09-24T08:37:05;6.07;;;3.60;;
68989;SDS011;56046;47.270;11.368;2022-09-24T08:39:30;7.37;;;4.03;;
68989;SDS011;56046;47.270;11.368;2022-09-24T08:41:58;7.75;;;4.00;;
68989;SDS011;56046;47.270;11.368;2022-09-24T08:54:53;7.57;;;4.30;;
68989;SDS011;56046;47.270;11.368;2022-09-24T08:57:18;6.18;;;4.45;;
68989;SDS011;56046;47.270;11.368;2022-09-24T08:59:46;7.77;;;4.20;;
68989;SDS011;56046;47.270;11.368;2022-09-24T09:07:42;8.53;;;3.80;;
68989;SDS011;56046;47.270;11.368;2022-09-24T09:12:34;7.80;;;3.90;;
68989;SDS011;56046;47.270;11.368;2022-09-24T09:15:15;7.30;;;3.60;;
68989;SDS011;56046;47.270;11.368;2022-09-24T09:18:01;7.22;;;3.80;;
68989;SDS011;56046;47.270;11.368;2022-09-24T09:20:29;9.70;;;4.63;;
68989;SDS011;56046;47.270;11.368;2022-09-24T09:22:57;6.53;;;4.03;;
68989;SDS011;56046;47.270;11.368;2022-09-24T09:25:25;6.03;;;3.70;;
68989;SDS011;56046;47.270;11.368;2022-09-24T09:28:00;6.10;;;3.60;;
68989;SDS011;56046;47.270;11.368;2022-09-24T09:30:25;6.30;;;3.60;;
68989;SDS011;56046;47.270;11.368;2022-09-24T09:33:03;5.55;;;3.58;;
68989;SDS011;56046;47.270;11.368;2022-09-24T09:35:34;5.17;;;3.37;;
68989;SDS011;56046;47.270;11.368;2022-09-24T09:40:40;7.20;;;3.80;;
68989;SDS011;56046;47.270;11.368;2022-09-24T09:43:08;6.72;;;3.90;;
68989;SDS011;56046;47.270;11.368;2022-09-24T09:48:00;4.63;;;3.03;;
68989;SDS011;56046;47.270;11.368;2022-09-24T09:50:41;5.47;;;2.90;;
68989;SDS011;56046;47.270;11.368;2022-09-24T09:53:21;10.55;;;3.80;;
68989;SDS011;56046;47.270;11.368;2022-09-24T09:55:51;5.85;;;3.53;;
68989;SDS011;56046;47.270;11.368;2022-09-24T09:58:17;6.35;;;3.70;;
68989;SDS011;56046;47.270;11.368;2022-09-24T10:00:44;6.18;;;3.25;;
68989;SDS011;56046;47.270;11.368;2022-09-24T10:05:55;8.90;;;2.47;;
68989;SDS011;56046;47.270;11.368;2022-09-24T10:08:21;7.15;;;3.25;;
68989;SDS011;56046;47.270;11.368;2022-09-24T10:10:56;4.75;;;2.85;;
68989;SDS011;56046;47.270;11.368;2022-09-24T10:13:22;6.10;;;3.13;;
68989;SDS011;56046;47.270;11.368;2022-09-24T10:16:01;4.70;;;2.83;;
68989;SDS011;56046;47.270;11.368;2022-09-24T10:20:53;5.47;;;2.67;;
68989;SDS011;56046;47.270;11.368;2022-09-24T10:23:20;4.90;;;2.90;;
68989;SDS011;56046;47.270;11.368;2022-09-24T10:25:50;8.23;;;3.53;;
68989;SDS011;56046;47.270;11.368;2022-09-24T10:28:19;4.05;;;2.90;;
68989;SDS011;56046;47.270;11.368;2022-09-24T10:31:09;9.65;;;3.00;;
68989;SDS011;56046;47.270;11.368;2022-09-24T10:33:36;4.80;;;2.78;;
68989;SDS011;56046;47.270;11.368;2022-09-24T10:36:02;3.93;;;2.50;;
68989;SDS011;56046;47.270;11.368;2022-09-24T10:38:28;4.85;;;2.78;;
68989;SDS011;56046;47.270;11.368;2022-09-24T10:40:55;3.45;;;1.88;;
68989;SDS011;56046;47.270;11.368;2022-09-24T10:43:21;3.93;;;2.60;;
68989;SDS011;56046;47.270;11.368;2022-09-24T10:48:15;5.60;;;2.50;;
68989;SDS011;56046;47.270;11.368;2022-09-24T10:50:45;4.50;;;2.60;;
68989;SDS011;56046;47.270;11.368;2022-09-24T11:26:26;4.43;;;2.87;;
68989;SDS011;56046;47.270;11.368;2022-09-24T11:29:05;5.93;;;2.22;;
68989;SDS011;56046;47.270;11.368;2022-09-24T11:31:35;4.38;;;2.40;;
68989;SDS011;56046;47.270;11.368;2022-09-24T11:41:59;4.50;;;2.67;;
68989;SDS011;56046;47.270;11.368;2022-09-24T11:45:16;4.70;;;2.60;;
68989;SDS011;56046;47.270;11.368;2022-09-24T11:57:32;4.32;;;2.55;;
68989;SDS011;56046;47.270;11.368;2022-09-24T11:59:59;7.45;;;2.95;;
68989;SDS011;56046;47.270;11.368;2022-09-24T12:02:29;6.55;;;2.97;;
68989;SDS011;56046;47.270;11.368;2022-09-24T12:04:59;4.83;;;2.77;;
68989;SDS011;56046;47.270;11.368;2022-09-24T12:07:30;5.30;;;2.63;;
68989;SDS011;56046;47.270;11.368;2022-09-24T12:09:58;5.05;;;2.83;;
68989;SDS011;56046;47.270;11.368;2022-09-24T12:12:30;5.22;;;3.00;;
68989;SDS011;56046;47.270;11.368;2022-09-24T12:15:01;6.15;;;3.05;;
68989;SDS011;56046;47.270;11.368;2022-09-24T12:20:08;4.43;;;2.75;;
68989;SDS011;56046;47.270;11.368;2022-09-24T12:22:39;5.00;;;2.83;;
68989;SDS011;56046;47.270;11.368;2022-09-24T12:25:09;9.35;;;3.50;;
68989;SDS011;56046;47.270;11.368;2022-09-24T12:27:36;6.60;;;2.80;;
68989;SDS011;56046;47.270;11.368;2022-09-24T12:33:19;4.68;;;3.00;;
68989;SDS011;56046;47.270;11.368;2022-09-24T12:38:16;5.70;;;2.90;;
68989;SDS011;56046;47.270;11.368;2022-09-24T12:48:58;7.47;;;4.00;;
68989;SDS011;56046;47.270;11.368;2022-09-24T12:51:31;6.50;;;3.33;;
68989;SDS011;56046;47.270;11.368;2022-09-24T12:53:58;5.38;;;2.95;;
68989;SDS011;56046;47.270;11.368;2022-09-24T12:56:24;5.72;;;3.03;;
68989;SDS011;56046;47.270;11.368;2022-09-24T12:58:51;5.32;;;3.50;;
68989;SDS011;56046;47.270;11.368;2022-09-24T13:06:33;5.28;;;3.45;;
68989;SDS011;56046;47.270;11.368;2022-09-24T13:08:59;6.93;;;4.43;;
68989;SDS011;56046;47.270;11.368;2022-09-24T13:16:37;7.55;;;4.15;;
68989;SDS011;56046;47.270;11.368;2022-09-24T13:19:03;7.18;;;4.00;;
68989;SDS011;56046;47.270;11.368;2022-09-24T13:21:31;7.80;;;4.40;;
68989;SDS011;56046;47.270;11.368;2022-09-24T13:23:56;7.90;;;4.40;;
68989;SDS011;56046;47.270;11.368;2022-09-24T13:26:26;7.67;;;4.10;;
68989;SDS011;56046;47.270;11.368;2022-09-24T13:28:53;6.38;;;3.72;;
68989;SDS011;56046;47.270;11.368;2022-09-24T13:31:41;9.52;;;5.20;;
68989;SDS011;56046;47.270;11.368;2022-09-24T13:36:37;7.90;;;4.60;;
68989;SDS011;56046;47.270;11.368;2022-09-24T13:42:03;7.53;;;4.47;;
68989;SDS011;56046;47.270;11.368;2022-09-24T13:44:32;7.47;;;4.57;;
68989;SDS011;56046;47.270;11.368;2022-09-24T13:47:00;8.50;;;4.55;;
68989;SDS011;56046;47.270;11.368;2022-09-24T13:49:28;7.75;;;5.00;;
68989;SDS011;56046;47.270;11.368;2022-09-24T13:52:38;8.32;;;4.85;;
68989;SDS011;56046;47.270;11.368;2022-09-24T13:54:50;8.90;;;5.75;;
68989;SDS011;56046;47.270;11.368;2022-09-24T13:57:23;10.57;;;5.37;;
68989;SDS011;56046;47.270;11.368;2022-09-24T14:00:00;8.43;;;5.07;;
68989;SDS011;56046;47.270;11.368;2022-09-24T14:02:26;7.97;;;4.93;;
68989;SDS011;56046;47.270;11.368;2022-09-24T14:04:55;8.73;;;4.60;;
68989;SDS011;56046;47.270;11.368;2022-09-24T14:07:22;7.95;;;5.35;;
68989;SDS011;56046;47.270;11.368;2022-09-24T14:09:48;6.70;;;4.33;;
68989;SDS011;56046;47.270;11.368;2022-09-24T14:12:15;6.93;;;4.45;;
68989;SDS011;56046;47.270;11.368;2022-09-24T14:14:42;6.82;;;4.60;;
68989;SDS011;56046;47.270;11.368;2022-09-24T14:17:10;8.40;;;4.30;;
68989;SDS011;56046;47.270;11.368;2022-09-24T14:19:36;7.10;;;5.00;;
68989;SDS011;56046;47.270;11.368;2022-09-24T14:22:02;6.43;;;4.43;;
68989;SDS011;56046;47.270;11.368;2022-09-24T14:24:35;7.97;;;4.90;;
68989;SDS011;56046;47.270;11.368;2022-09-24T14:27:08;7.95;;;5.32;;
68989;SDS011;56046;47.270;11.368;2022-09-24T14:29:41;7.95;;;4.68;;
68989;SDS011;56046;47.270;11.368;2022-09-24T14:32:15;7.70;;;4.95;;
68989;SDS011;56046;47.270;11.368;2022-09-24T14:34:42;9.30;;;5.07;;
68989;SDS011;56046;47.270;11.368;2022-09-24T14:37:13;8.37;;;4.93;;
68989;SDS011;56046;47.270;11.368;2022-09-24T14:39:41;7.07;;;4.90;;
68989;SDS011;56046;47.270;11.368;2022-09-24T14:42:08;8.95;;;5.30;;
68989;SDS011;56046;47.270;11.368;2022-09-24T14:44:34;8.68;;;5.38;;
68989;SDS011;56046;47.270;11.368;2022-09-24T14:47:02;7.82;;;4.53;;
68989;SDS011;56046;47.270;11.368;2022-09-24T14:52:02;7.47;;;4.17;;
68989;SDS011;56046;47.270;11.368;2022-09-24T14:56:53;8.00;;;5.13;;
68989;SDS011;56046;47.270;11.368;2022-09-24T14:59:28;7.87;;;5.10;;
68989;SDS011;56046;47.270;11.368;2022-09-24T15:02:01;8.90;;;4.80;;
68989;SDS011;56046;47.270;11.368;2022-09-24T15:04:27;8.70;;;5.15;;
68989;SDS011;56046;47.270;11.368;2022-09-24T15:06:53;8.97;;;5.40;;
68989;SDS011;56046;47.270;11.368;2022-09-24T15:11:44;18.30;;;12.07;;
68989;SDS011;56046;47.270;11.368;2022-09-24T15:16:41;5.30;;;3.30;;
68989;SDS011;56046;47.270;11.368;2022-09-24T15:21:32;8.77;;;4.57;;
68989;SDS011;56046;47.270;11.368;2022-09-24T15:23:57;8.10;;;5.67;;
68989;SDS011;56046;47.270;11.368;2022-09-24T15:26:23;15.07;;;8.87;;
68989;SDS011;56046;47.270;11.368;2022-09-24T15:28:52;8.52;;;4.82;;
68989;SDS011;56046;47.270;11.368;2022-09-24T15:31:18;6.15;;;3.67;;
68989;SDS011;56046;47.270;11.368;2022-09-24T15:33:44;5.80;;;3.70;;
68989;SDS011;56046;47.270;11.368;2022-09-24T15:36:09;6.50;;;3.20;;
68989;SDS011;56046;47.270;11.368;2022-09-24T15:38:35;6.68;;;4.00;;
68989;SDS011;56046;47.270;11.368;2022-09-24T15:41:00;5.93;;;4.27;;
68989;SDS011;56046;47.270;11.368;2022-09-24T15:43:26;11.40;;;3.90;;
68989;SDS011;56046;47.270;11.368;2022-09-24T15:45:51;6.23;;;3.63;;
68989;SDS011;56046;47.270;11.368;2022-09-24T15:48:16;6.57;;;4.57;;
68989;SDS011;56046;47.270;11.368;2022-09-24T15:50:43;7.60;;;4.97;;
68989;SDS011;56046;47.270;11.368;2022-09-24T15:53:19;9.50;;;5.70;;
68989;SDS011;56046;47.270;11.368;2022-09-24T15:55:46;10.45;;;5.90;;
68989;SDS011;56046;47.270;11.368;2022-09-24T15:58:13;8.88;;;6.07;;
68989;SDS011;56046;47.270;11.368;2022-09-24T16:00:39;10.05;;;5.65;;
68989;SDS011;56046;47.270;11.368;2022-09-24T16:03:08;9.53;;;5.70;;
68989;SDS011;56046;47.270;11.368;2022-09-24T16:05:34;8.80;;;5.68;;
68989;SDS011;56046;47.270;11.368;2022-09-24T16:08:00;10.57;;;7.20;;
68989;SDS011;56046;47.270;11.368;2022-09-24T16:10:25;14.43;;;7.70;;
68989;SDS011;56046;47.270;11.368;2022-09-24T16:12:50;11.23;;;6.70;;
68989;SDS011;56046;47.270;11.368;2022-09-24T16:15:16;9.33;;;6.37;;
68989;SDS011;56046;47.270;11.368;2022-09-24T16:17:41;22.03;;;9.90;;
68989;SDS011;56046;47.270;11.368;2022-09-24T16:20:07;14.20;;;8.70;;
68989;SDS011;56046;47.270;11.368;2022-09-24T16:22:33;9.37;;;6.60;;
68989;SDS011;56046;47.270;11.368;2022-09-24T16:24:59;14.13;;;8.13;;
68989;SDS011;56046;47.270;11.368;2022-09-24T16:27:24;12.03;;;7.87;;
68989;SDS011;56046;47.270;11.368;2022-09-24T16:29:49;11.97;;;7.60;;
68989;SDS011;56046;47.270;11.368;2022-09-24T16:32:15;9.27;;;6.30;;
68989;SDS011;56046;47.270;11.368;2022-09-24T16:34:40;12.63;;;7.27;;
68989;SDS011;56046;47.270;11.368;2022-09-24T16:37:06;13.07;;;7.67;;
68989;SDS011;56046;47.270;11.368;2022-09-24T16:39:31;10.40;;;6.47;;
68989;SDS011;56046;47.270;11.368;2022-09-24T16:41:57;10.77;;;6.50;;
68989;SDS011;56046;47.270;11.368;2022-09-24T16:44:22;11.13;;;6.97;;
68989;SDS011;56046;47.270;11.368;2022-09-24T16:46:47;12.30;;;7.33;;
68989;SDS011;56046;47.270;11.368;2022-09-24T16:49:12;11.43;;;7.23;;
68989;SDS011;56046;47.270;11.368;2022-09-24T16:51:38;11.57;;;7.27;;
68989;SDS011;56046;47.270;11.368;2022-09-24T16:54:03;10.43;;;6.97;;
68989;SDS011;56046;47.270;11.368;2022-09-24T16:56:32;10.33;;;6.53;;
68989;SDS011;56046;47.270;11.368;2022-09-24T16:58:57;13.27;;;7.05;;